Time;durP1;ratioP1;P1;durP2;ratioP2;P2;SDS_P1;SDS_P2;PMS_P1;PMS_P2;Temp;Humidity;BMP_temperature;BMP_pressure;BME280_temperature;BME280_humidity;BME280_pressure;Samples;Min_cycle;Max_cycle;Signal;HPM_P1;HPM_P2
2022/07/15 00:00:39;;;;;;;8.60;4.90;;;19.40;99.90;;;;;;5079522;28;20410;-54
2022/07/15 00:03:05;;;;;;;10.63;5.30;;;19.30;99.90;;;;;;5080586;28;20388;-53
2022/07/15 00:05:31;;;;;;;9.50;5.30;;;19.20;99.90;;;;;;5078115;28;20866;-53
2022/07/15 00:08:00;;;;;;;9.43;5.10;;;19.10;99.90;;;;;;5079467;28;20384;-53
2022/07/15 00:10:26;;;;;;;7.15;4.40;;;19.10;99.90;;;;;;5081053;28;20401;-60
2022/07/15 00:12:55;;;;;;;9.40;4.80;;;19.00;99.90;;;;;;5080785;28;20429;-53
2022/07/15 00:15:24;;;;;;;9.45;4.68;;;18.90;99.90;;;;;;5080060;28;20384;-54
2022/07/15 00:17:50;;;;;;;8.40;4.30;;;18.90;99.90;;;;;;5080206;28;20755;-53
2022/07/15 00:20:17;;;;;;;9.25;4.40;;;18.90;99.90;;;;;;5083089;28;20423;-55
2022/07/15 00:22:43;;;;;;;9.45;4.55;;;18.80;99.90;;;;;;5077984;28;20618;-59
2022/07/15 00:25:10;;;;;;;9.00;4.70;;;18.80;99.90;;;;;;5079616;28;20393;-55
2022/07/15 00:27:49;;;;;;;9.48;5.50;;;18.70;99.90;;;;;;5079403;28;20421;-56
2022/07/15 00:30:15;;;;;;;9.70;4.95;;;18.70;99.90;;;;;;5078865;28;20459;-55
2022/07/15 00:32:41;;;;;;;10.55;4.55;;;18.60;99.90;;;;;;5078926;28;20493;-55
2022/07/15 00:35:07;;;;;;;9.10;4.80;;;18.50;99.90;;;;;;5080296;28;20380;-53
2022/07/15 00:37:33;;;;;;;8.45;4.22;;;18.50;99.90;;;;;;5077498;28;20399;-53
2022/07/15 00:39:58;;;;;;;10.50;4.33;;;18.50;99.90;;;;;;5080625;28;20413;-53
2022/07/15 00:45:10;;;;;;;8.20;4.05;;;18.40;99.90;;;;;;5079599;28;20801;-52
2022/07/15 00:47:36;;;;;;;8.40;3.97;;;18.30;99.90;;;;;;5078011;28;20384;-53
2022/07/15 00:50:01;;;;;;;8.50;4.10;;;18.30;99.90;;;;;;5078792;28;20867;-53
2022/07/15 00:52:28;;;;;;;8.30;4.60;;;18.20;99.90;;;;;;5076158;28;20390;-56
2022/07/15 00:54:58;;;;;;;8.47;4.10;;;18.20;99.90;;;;;;5078432;28;20368;-52
2022/07/15 00:57:25;;;;;;;8.52;4.20;;;18.10;99.90;;;;;;5079069;28;20895;-61
2022/07/15 00:59:53;;;;;;;7.23;3.93;;;18.10;99.90;;;;;;5080253;28;20444;-54
2022/07/15 01:02:20;;;;;;;7.97;4.40;;;18.00;99.90;;;;;;5078369;28;20860;-54
2022/07/15 01:04:48;;;;;;;9.03;4.47;;;18.00;99.90;;;;;;5077793;28;20828;-60
2022/07/15 01:07:13;;;;;;;8.48;4.20;;;18.00;99.90;;;;;;5077878;28;20372;-55
2022/07/15 01:09:39;;;;;;;8.13;4.22;;;18.80;99.90;;;;;;5076717;28;20877;-51
2022/07/15 01:12:05;;;;;;;7.60;3.70;;;17.90;99.90;;;;;;5079363;28;20375;-58
2022/07/15 01:14:31;;;;;;;8.25;3.95;;;17.90;99.90;;;;;;5077438;28;20785;-53
2022/07/15 01:16:56;;;;;;;7.53;4.40;;;17.90;99.90;;;;;;5078527;28;20388;-52
2022/07/15 01:19:22;;;;;;;7.10;3.90;;;17.90;99.90;;;;;;5079511;28;20415;-53
2022/07/15 01:21:48;;;;;;;8.23;3.87;;;17.80;99.90;;;;;;5079416;28;20740;-53
2022/07/15 01:24:13;;;;;;;12.57;5.25;;;17.70;99.90;;;;;;5077813;28;20932;-52
2022/07/15 01:26:40;;;;;;;9.15;4.35;;;17.60;99.90;;;;;;5078264;28;20755;-52
2022/07/15 01:29:06;;;;;;;8.40;3.70;;;17.50;99.90;;;;;;5079266;28;20879;-52
2022/07/15 01:31:31;;;;;;;9.03;3.90;;;17.40;99.90;;;;;;5078680;28;20438;-52
2022/07/15 01:33:57;;;;;;;8.48;3.80;;;17.40;99.90;;;;;;5079719;28;20898;-52
2022/07/15 01:36:23;;;;;;;8.82;4.00;;;17.40;99.90;;;;;;5076867;28;20921;-52
2022/07/15 01:38:49;;;;;;;9.13;3.93;;;17.40;99.90;;;;;;5079312;28;20917;-52
2022/07/15 01:41:15;;;;;;;8.80;3.55;;;17.40;99.90;;;;;;5078473;28;20393;-52
2022/07/15 01:43:41;;;;;;;10.53;4.13;;;17.40;99.90;;;;;;5077872;28;20388;-52
2022/07/15 01:46:06;;;;;;;7.25;3.90;;;17.30;99.90;;;;;;5077676;28;20416;-52
2022/07/15 01:51:16;;;;;;;8.48;4.00;;;17.10;99.90;;;;;;5081791;28;20395;-53
2022/07/15 01:53:42;;;;;;;10.20;3.60;;;17.10;99.90;;;;;;5079328;28;20387;-52
2022/07/15 01:56:07;;;;;;;9.10;3.87;;;17.00;99.90;;;;;;5082750;28;20424;-55
2022/07/15 01:58:33;;;;;;;9.55;3.83;;;17.00;99.90;;;;;;5083021;28;20378;-53
2022/07/15 02:00:59;;;;;;;9.45;3.97;;;16.90;99.90;;;;;;5082885;28;20909;-52
2022/07/15 02:03:25;;;;;;;8.23;4.10;;;16.80;99.90;;;;;;5083165;28;20402;-60
2022/07/15 02:05:50;;;;;;;9.38;3.80;;;16.70;99.90;;;;;;5080975;28;20465;-52
2022/07/15 02:08:16;;;;;;;8.82;3.72;;;16.70;99.90;;;;;;5082087;28;20387;-53
2022/07/15 02:10:42;;;;;;;10.40;3.80;;;16.50;99.90;;;;;;5083500;28;20447;-53
2022/07/15 02:13:09;;;;;;;9.07;4.40;;;16.50;99.90;;;;;;5082313;28;20382;-52
2022/07/15 02:15:35;;;;;;;8.80;4.17;;;16.30;99.90;;;;;;5080151;28;20386;-52
2022/07/15 02:18:02;;;;;;;9.15;3.85;;;16.30;99.90;;;;;;5081143;28;20380;-52
2022/07/15 02:20:27;;;;;;;8.68;3.65;;;16.20;99.90;;;;;;5082603;28;20502;-60
2022/07/15 02:22:57;;;;;;;7.73;3.37;;;16.20;99.90;;;;;;5080504;28;20511;-52
2022/07/15 02:25:25;;;;;;;7.53;3.60;;;16.00;99.90;;;;;;5082481;28;20384;-53
2022/07/15 02:27:56;;;;;;;8.38;3.88;;;16.00;99.90;;;;;;5079516;28;20761;-52
2022/07/15 02:30:28;;;;;;;9.13;4.00;;;16.00;99.90;;;;;;5082136;28;20406;-52
2022/07/15 02:32:54;;;;;;;9.90;4.10;;;16.00;99.90;;;;;;5082826;28;20395;-52
2022/07/15 02:35:19;;;;;;;10.40;3.87;;;16.00;99.90;;;;;;5083325;28;21013;-55
2022/07/15 02:37:46;;;;;;;9.05;3.88;;;15.90;99.90;;;;;;5081188;28;20378;-54
2022/07/15 02:40:12;;;;;;;9.52;4.20;;;15.90;99.90;;;;;;5082821;28;20408;-52
2022/07/15 02:42:38;;;;;;;9.35;4.00;;;15.90;99.90;;;;;;5080203;28;20791;-57
2022/07/15 02:45:05;;;;;;;9.25;4.15;;;15.90;1.00;;;;;;5081580;28;20402;-56
2022/07/15 02:47:31;;;;;;;7.65;4.10;;;15.80;1.00;;;;;;5080034;28;20412;-58
2022/07/15 02:49:56;;;;;;;10.13;3.80;;;15.80;1.00;;;;;;5080997;28;20791;-58
2022/07/15 02:52:22;;;;;;;9.57;4.00;;;15.70;1.00;;;;;;5083214;28;20402;-55
2022/07/15 02:54:48;;;;;;;8.83;3.80;;;15.60;1.00;;;;;;5080051;28;20370;-55
2022/07/15 02:57:13;;;;;;;9.67;4.17;;;15.60;1.00;;;;;;5080752;28;20446;-56
2022/07/15 02:59:39;;;;;;;7.47;3.60;;;15.50;1.00;;;;;;5079597;28;20412;-57
2022/07/15 03:02:05;;;;;;;7.38;3.53;;;15.50;1.00;;;;;;5081447;28;20389;-56
2022/07/15 03:04:31;;;;;;;13.27;4.20;;;15.50;1.00;;;;;;5081875;28;20412;-57
2022/07/15 03:06:56;;;;;;;8.48;3.90;;;15.50;1.00;;;;;;5080500;28;20897;-56
2022/07/15 03:09:22;;;;;;;8.00;3.77;;;15.60;1.00;;;;;;5081489;28;20775;-53
2022/07/15 03:11:48;;;;;;;8.97;3.77;;;15.60;1.00;;;;;;5079970;28;20431;-52
2022/07/15 03:14:13;;;;;;;12.13;4.10;;;15.60;1.00;;;;;;5082269;28;20374;-52
2022/07/15 03:16:39;;;;;;;10.48;4.10;;;15.60;1.00;;;;;;5081155;28;20386;-55
2022/07/15 03:19:05;;;;;;;8.90;4.07;;;15.60;1.00;;;;;;5082626;28;20534;-52
2022/07/15 03:21:31;;;;;;;9.77;3.90;;;15.50;1.00;;;;;;5080934;28;20418;-52
2022/07/15 03:23:56;;;;;;;11.37;3.80;;;15.60;1.00;;;;;;5081075;28;20386;-52
2022/07/15 03:26:22;;;;;;;8.80;3.90;;;15.50;1.00;;;;;;5082265;28;20447;-53
2022/07/15 03:28:48;;;;;;;9.20;4.00;;;15.60;1.00;;;;;;5079282;28;20410;-53
2022/07/15 03:31:14;;;;;;;8.80;4.05;;;15.50;1.00;;;;;;5081936;28;20400;-52
2022/07/15 03:33:40;;;;;;;9.25;3.97;;;15.50;1.00;;;;;;5079825;28;20378;-52
2022/07/15 03:36:05;;;;;;;9.82;4.00;;;15.40;1.00;;;;;;5081454;28;20452;-52
2022/07/15 03:38:31;;;;;;;8.85;4.28;;;15.40;1.00;;;;;;5081085;28;20404;-52
2022/07/15 03:40:57;;;;;;;11.30;4.38;;;15.50;1.00;;;;;;5076825;28;20402;-52
2022/07/15 03:43:26;;;;;;;9.20;4.10;;;15.40;1.00;;;;;;5091012;28;20886;-52
2022/07/15 03:45:52;;;;;;;9.30;3.90;;;15.40;1.00;;;;;;5089651;28;20386;-52
2022/07/15 03:48:18;;;;;;;9.20;4.50;;;15.50;1.00;;;;;;5091351;28;20525;-51
2022/07/15 03:50:44;;;;;;;11.20;4.67;;;15.50;1.00;;;;;;5079223;28;20473;-54
2022/07/15 03:53:10;;;;;;;9.52;4.30;;;15.40;1.00;;;;;;5070709;28;20395;-52
2022/07/15 03:55:37;;;;;;;7.97;3.90;;;15.40;1.00;;;;;;5079195;28;20386;-52
2022/07/15 03:58:03;;;;;;;10.95;4.18;;;15.40;35.60;;;;;;5091192;28;20394;-52
2022/07/15 04:00:29;;;;;;;10.55;4.50;;;15.50;50.90;;;;;;5085394;28;20425;-60
2022/07/15 04:02:55;;;;;;;8.30;4.10;;;15.50;64.60;;;;;;5070962;28;20492;-53
2022/07/15 04:05:21;;;;;;;12.30;4.40;;;15.50;1.00;;;;;;5070339;28;20430;-55
2022/07/15 04:07:47;;;;;;;9.77;4.20;;;15.60;1.00;;;;;;5070927;28;20375;-52
2022/07/15 04:10:13;;;;;;;11.02;4.65;;;15.70;1.00;;;;;;5090091;28;20755;-52
2022/07/15 04:12:39;;;;;;;10.43;4.43;;;15.70;1.00;;;;;;5088545;28;20404;-52
2022/07/15 04:15:05;;;;;;;8.52;4.40;;;15.70;1.00;;;;;;5081558;28;20751;-52
2022/07/15 04:17:30;;;;;;;9.85;4.78;;;15.80;1.00;;;;;;5069950;28;20391;-59
2022/07/15 04:19:56;;;;;;;10.63;4.30;;;15.90;1.00;;;;;;5070189;28;20407;-52
2022/07/15 04:22:22;;;;;;;8.77;4.30;;;15.90;1.00;;;;;;5084184;28;20863;-52
2022/07/15 04:24:47;;;;;;;13.20;4.90;;;15.90;1.00;;;;;;5071672;28;20475;-52
2022/07/15 04:27:13;;;;;;;8.80;4.40;;;16.00;1.00;;;;;;5073491;28;20487;-52
2022/07/15 04:29:39;;;;;;;11.38;4.65;;;16.00;1.00;;;;;;5089636;28;20796;-52
2022/07/15 04:32:05;;;;;;;9.53;4.80;;;16.20;1.00;;;;;;5082362;28;20406;-52
2022/07/15 04:34:31;;;;;;;10.07;4.70;;;16.30;1.00;;;;;;5069767;28;20506;-59
2022/07/15 04:36:56;;;;;;;11.07;4.13;;;16.50;1.00;;;;;;5070964;28;20510;-52
2022/07/15 04:39:22;;;;;;;10.33;4.80;;;16.60;1.00;;;;;;5090309;28;20418;-52
2022/07/15 04:41:50;;;;;;;10.97;4.83;;;16.70;1.00;;;;;;5089010;28;21263;-55
2022/07/15 04:44:16;;;;;;;11.07;5.30;;;16.80;1.00;;;;;;5069708;28;20390;-53
2022/07/15 04:46:41;;;;;;;13.02;4.75;;;16.90;1.00;;;;;;5069433;28;20375;-52
2022/07/15 04:51:51;;;;;;;9.70;4.32;;;17.10;1.00;;;;;;5080355;28;20411;-52
2022/07/15 04:54:17;;;;;;;8.67;4.20;;;17.30;1.00;;;;;;5089576;28;20469;-58
2022/07/15 04:56:42;;;;;;;10.30;4.50;;;17.40;1.00;;;;;;5078706;28;20429;-52
2022/07/15 04:59:08;;;;;;;10.90;5.20;;;17.60;1.00;;;;;;5080497;28;20786;-52
2022/07/15 05:01:33;;;;;;;9.97;4.50;;;17.90;99.90;;;;;;5078583;28;20410;-53
2022/07/15 05:03:59;;;;;;;10.37;4.50;;;18.40;99.90;;;;;;5084868;28;20398;-52
2022/07/15 05:06:25;;;;;;;9.87;4.40;;;19.60;99.90;;;;;;5084828;28;20388;-51
2022/07/15 05:08:51;;;;;;;9.07;4.60;;;21.00;99.90;;;;;;5072342;28;20627;-53
2022/07/15 05:11:17;;;;;;;10.43;4.40;;;22.00;99.90;;;;;;5077795;28;20878;-53
2022/07/15 05:13:42;;;;;;;11.02;5.38;;;23.10;99.90;;;;;;5080140;28;20879;-52
2022/07/15 05:16:08;;;;;;;9.93;4.72;;;24.20;99.90;;;;;;5087247;28;20394;-54
2022/07/15 05:18:34;;;;;;;8.73;4.60;;;25.20;99.90;;;;;;5076149;28;20810;-53
2022/07/15 05:21:00;;;;;;;9.00;4.70;;;25.80;99.90;;;;;;5074516;28;20411;-53
2022/07/15 05:23:25;;;;;;;10.10;5.20;;;26.10;99.90;;;;;;5080242;28;20404;-53
2022/07/15 05:25:51;;;;;;;9.10;5.30;;;26.10;99.90;;;;;;5092486;28;20382;-53
2022/07/15 05:28:17;;;;;;;10.67;6.07;;;26.20;99.90;;;;;;5090800;28;20451;-53
2022/07/15 05:30:42;;;;;;;8.38;5.55;;;26.40;99.90;;;;;;5081642;28;20381;-53
2022/07/15 05:33:09;;;;;;;9.52;5.68;;;27.00;99.90;;;;;;5073374;28;20383;-53
2022/07/15 05:35:34;;;;;;;10.25;5.45;;;27.90;99.90;;;;;;5090744;28;20398;-54
2022/07/15 05:38:00;;;;;;;8.57;5.73;;;28.20;99.90;;;;;;5093892;28;20838;-54
2022/07/15 05:40:26;;;;;;;14.15;6.55;;;29.10;99.90;;;;;;5091232;28;20429;-56
2022/07/15 05:42:53;;;;;;;9.10;6.03;;;30.10;99.90;;;;;;5086358;28;21184;-53
2022/07/15 05:45:19;;;;;;;8.48;6.10;;;31.10;99.90;;;;;;5087159;28;20884;-53
2022/07/15 05:47:49;;;;;;;11.35;6.93;;;30.80;99.90;;;;;;5071651;28;20392;-56
2022/07/15 05:50:15;;;;;;;8.93;6.50;;;30.70;99.90;;;;;;5073293;28;20399;-54
2022/07/15 05:52:40;;;;;;;10.30;5.40;;;30.60;99.90;;;;;;5072540;28;20382;-54
2022/07/15 05:55:06;;;;;;;9.30;6.20;;;30.50;99.90;;;;;;5072933;28;20929;-54
2022/07/15 05:57:32;;;;;;;10.82;5.85;;;29.80;99.90;;;;;;5072326;28;20389;-59
2022/07/15 05:59:58;;;;;;;9.65;6.70;;;30.20;99.90;;;;;;5074071;28;20431;-54
2022/07/15 06:02:23;;;;;;;12.00;6.97;;;30.10;99.90;;;;;;5090706;28;20521;-55
2022/07/15 06:04:49;;;;;;;9.55;6.40;;;29.90;99.90;;;;;;5084220;28;20472;-55
2022/07/15 06:07:15;;;;;;;8.43;6.40;;;30.50;99.90;;;;;;5082404;28;20475;-55
2022/07/15 06:09:50;;;;;;;9.45;6.55;;;31.00;99.90;;;;;;5086700;28;20425;-53
2022/07/15 06:12:18;;;;;;;9.98;5.30;;;30.80;99.90;;;;;;5091788;28;20457;-53
2022/07/15 06:14:44;;;;;;;10.00;5.47;;;30.50;99.90;;;;;;5088067;28;20394;-57
2022/07/15 06:17:10;;;;;;;9.45;6.90;;;30.60;99.90;;;;;;5092925;28;20397;-53
2022/07/15 06:19:36;;;;;;;7.93;5.75;;;31.40;99.90;;;;;;5080919;28;20391;-54
2022/07/15 06:22:01;;;;;;;7.67;6.00;;;32.00;99.90;;;;;;5074332;28;20400;-53
2022/07/15 06:24:27;;;;;;;11.00;6.80;;;32.10;99.90;;;;;;5092512;28;20389;-54
2022/07/15 06:26:53;;;;;;;9.38;6.60;;;32.60;99.90;;;;;;5091555;28;20416;-54
2022/07/15 06:29:19;;;;;;;7.65;6.20;;;32.90;99.90;;;;;;5084300;28;20418;-54
2022/07/15 06:31:45;;;;;;;9.90;5.90;;;32.60;99.90;;;;;;5073695;28;20543;-53
2022/07/15 06:34:10;;;;;;;8.97;6.13;;;31.80;99.90;;;;;;5072392;28;20399;-53
2022/07/15 06:36:36;;;;;;;6.90;4.03;;;32.00;99.90;;;;;;5086754;28;20481;-54
2022/07/15 06:39:02;;;;;;;8.75;4.75;;;31.90;99.90;;;;;;5090887;28;20461;-53
2022/07/15 06:41:28;;;;;;;7.53;4.80;;;32.10;99.90;;;;;;5085937;28;20410;-53
2022/07/15 06:43:53;;;;;;;11.68;5.30;;;32.60;99.90;;;;;;5091851;28;20386;-54
2022/07/15 06:46:20;;;;;;;7.72;5.13;;;32.60;99.90;;;;;;5077610;28;20947;-53
2022/07/15 06:48:45;;;;;;;13.48;4.97;;;32.00;99.90;;;;;;5076560;28;20879;-54
2022/07/15 06:51:11;;;;;;;9.95;4.90;;;32.40;99.90;;;;;;5092177;28;20416;-53
2022/07/15 06:53:37;;;;;;;9.23;5.20;;;32.60;99.90;;;;;;5086858;28;20433;-54
2022/07/15 06:56:03;;;;;;;8.25;5.40;;;32.70;99.90;;;;;;5071747;28;20376;-53
2022/07/15 06:58:29;;;;;;;9.60;5.72;;;32.60;99.90;;;;;;5074893;28;20443;-54
2022/07/15 07:00:54;;;;;;;8.10;4.50;;;33.00;99.90;;;;;;5091157;28;20455;-53
2022/07/15 07:03:20;;;;;;;10.48;4.00;;;33.60;99.90;;;;;;5089885;28;20727;-53
2022/07/15 07:05:46;;;;;;;8.38;4.32;;;33.60;99.90;;;;;;5072249;28;20394;-54
2022/07/15 07:08:12;;;;;;;8.40;4.78;;;34.60;99.90;;;;;;5072568;28;20387;-54
2022/07/15 07:10:37;;;;;;;9.10;6.07;;;35.30;99.90;;;;;;5089888;28;20394;-54
2022/07/15 07:13:03;;;;;;;10.00;5.87;;;34.40;99.90;;;;;;5090997;28;20374;-54
2022/07/15 07:15:29;;;;;;;8.70;5.10;;;34.20;99.90;;;;;;5091492;28;20394;-54
2022/07/15 07:17:54;;;;;;;8.67;6.17;;;34.60;99.90;;;;;;5081859;28;20773;-54
2022/07/15 07:20:20;;;;;;;9.23;4.83;;;33.70;99.90;;;;;;5071579;28;20411;-53
2022/07/15 07:22:46;;;;;;;9.15;2.70;;;32.30;99.90;;;;;;5071590;28;20420;-54
2022/07/15 07:25:12;;;;;;;6.70;2.63;;;32.40;99.90;;;;;;5071413;28;20384;-54
2022/07/15 07:27:37;;;;;;;8.10;2.10;;;33.40;99.90;;;;;;5076370;28;20416;-54
2022/07/15 07:30:07;;;;;;;7.93;2.47;;;34.00;99.90;;;;;;5083754;28;20398;-57
2022/07/15 07:32:32;;;;;;;8.50;2.55;;;34.70;99.90;;;;;;5079600;28;20391;-60
2022/07/15 07:34:58;;;;;;;7.00;2.30;;;35.10;99.90;;;;;;5087411;28;20493;-54
2022/07/15 07:37:26;;;;;;;7.97;3.40;;;34.90;99.90;;;;;;5086961;28;20471;-58
2022/07/15 07:39:52;;;;;;;9.40;5.45;;;35.60;99.90;;;;;;5070355;28;20422;-54
2022/07/15 07:42:19;;;;;;;7.80;1.90;;;35.60;99.90;;;;;;5071214;28;20741;-54
2022/07/15 07:44:45;;;;;;;8.00;3.10;;;34.90;99.90;;;;;;5078956;28;20389;-54
2022/07/15 07:47:11;;;;;;;7.07;2.40;;;34.90;99.90;;;;;;5085973;28;20446;-55
2022/07/15 07:49:37;;;;;;;8.13;2.33;;;35.40;99.90;;;;;;5070168;28;20408;-54
2022/07/15 07:52:04;;;;;;;6.68;2.65;;;35.70;99.90;;;;;;5077445;28;20378;-54
2022/07/15 07:54:30;;;;;;;7.68;2.40;;;35.30;99.90;;;;;;5090953;28;20382;-54
2022/07/15 07:56:56;;;;;;;8.10;2.00;;;35.40;99.90;;;;;;5089825;28;20797;-54
2022/07/15 07:59:21;;;;;;;7.97;2.10;;;35.30;99.90;;;;;;5084440;28;20396;-54
2022/07/15 08:01:47;;;;;;;7.13;2.10;;;35.20;99.90;;;;;;5079430;28;20394;-54
2022/07/15 08:04:14;;;;;;;5.50;1.90;;;35.10;99.90;;;;;;5077279;28;20402;-54
2022/07/15 08:06:40;;;;;;;6.40;2.08;;;34.90;99.90;;;;;;5086412;28;20429;-54
2022/07/15 08:09:06;;;;;;;6.60;2.30;;;34.30;99.90;;;;;;5070177;28;20449;-55
2022/07/15 08:11:33;;;;;;;7.30;2.50;;;35.30;99.90;;;;;;5077943;28;20830;-60
2022/07/15 08:13:59;;;;;;;8.90;2.35;;;36.00;99.90;;;;;;5081116;28;20465;-55
2022/07/15 08:16:24;;;;;;;7.30;2.40;;;36.80;99.90;;;;;;5084995;28;20398;-54
2022/07/15 08:18:51;;;;;;;6.18;2.30;;;36.50;99.90;;;;;;5089783;28;20382;-54
2022/07/15 08:21:16;;;;;;;7.18;3.17;;;36.10;99.90;;;;;;5090319;28;20535;-54
2022/07/15 08:23:42;;;;;;;7.43;2.50;;;37.80;99.90;;;;;;5089425;28;20469;-54
2022/07/15 08:26:10;;;;;;;6.93;4.67;;;36.80;99.90;;;;;;5089067;28;20377;-54
2022/07/15 08:28:36;;;;;;;7.90;4.70;;;36.50;99.90;;;;;;5089575;28;20838;-60
2022/07/15 08:31:02;;;;;;;7.70;1.80;;;36.40;99.90;;;;;;5089809;28;20401;-54
2022/07/15 08:33:28;;;;;;;6.60;2.00;;;36.20;99.90;;;;;;5090075;28;20375;-55
2022/07/15 08:35:53;;;;;;;6.75;2.20;;;36.80;99.90;;;;;;5089364;28;20385;-54
2022/07/15 08:38:19;;;;;;;7.90;2.50;;;37.10;99.90;;;;;;5089861;28;20393;-55
2022/07/15 08:40:45;;;;;;;6.77;2.70;;;37.70;99.90;;;;;;5089427;28;20429;-54
2022/07/15 08:43:11;;;;;;;7.88;2.75;;;37.80;99.90;;;;;;5089975;28;20386;-56
2022/07/15 08:45:38;;;;;;;6.30;2.20;;;37.60;99.90;;;;;;5089566;28;20865;-55
2022/07/15 08:48:06;;;;;;;12.60;2.87;;;37.30;99.90;;;;;;5090121;28;20677;-54
2022/07/15 08:50:33;;;;;;;8.40;2.60;;;37.80;99.90;;;;;;5089784;28;20386;-59
2022/07/15 08:52:59;;;;;;;9.73;2.38;;;37.20;99.90;;;;;;5089243;28;20381;-54
2022/07/15 08:55:24;;;;;;;8.03;2.60;;;36.70;99.90;;;;;;5090034;28;20676;-55
2022/07/15 08:57:52;;;;;;;7.13;2.80;;;36.60;99.90;;;;;;5088489;28;20888;-55
2022/07/15 09:00:19;;;;;;;11.90;3.50;;;37.10;99.90;;;;;;5089614;28;20418;-55
2022/07/15 09:02:44;;;;;;;8.30;2.40;;;36.90;99.90;;;;;;5089074;28;20402;-55
2022/07/15 09:05:33;;;;;;;7.43;2.42;;;38.00;99.90;;;;;;5089771;28;20866;-53
2022/07/15 09:08:07;;;;;;;7.10;2.40;;;38.40;99.90;;;;;;5089190;28;20499;-53
2022/07/15 09:11:00;;;;;;;6.70;3.20;;;36.90;99.90;;;;;;5089706;28;20394;-61
2022/07/15 09:13:25;;;;;;;8.48;3.40;;;36.20;99.90;;;;;;5081011;28;20415;-55
2022/07/15 09:15:52;;;;;;;8.60;3.78;;;36.00;99.90;;;;;;5068507;28;20380;-55
2022/07/15 09:18:23;;;;;;;6.93;2.30;;;35.70;99.90;;;;;;5069676;28;20379;-56
2022/07/15 09:20:49;;;;;;;8.10;4.47;;;35.70;99.90;;;;;;5068635;28;20412;-54
2022/07/15 09:23:20;;;;;;;7.30;5.87;;;34.00;99.90;;;;;;5069323;28;20474;-55
2022/07/15 09:25:53;;;;;;;9.10;5.93;;;32.20;99.90;;;;;;5068742;28;20371;-55
2022/07/15 09:28:18;;;;;;;10.38;6.20;;;31.20;99.90;;;;;;5069543;28;20434;-55
2022/07/15 09:36:10;;;;;;;8.30;4.80;;;33.50;99.90;;;;;;5069049;28;20460;-56
2022/07/15 09:38:40;;;;;;;7.68;2.50;;;34.30;99.90;;;;;;5069233;28;20463;-62
2022/07/15 09:41:07;;;;;;;13.20;3.30;;;35.40;99.90;;;;;;5068957;28;20935;-56
2022/07/15 09:43:51;;;;;;;6.47;2.70;;;35.50;99.90;;;;;;5069278;28;20411;-59
2022/07/15 09:46:18;;;;;;;7.03;2.30;;;35.30;99.90;;;;;;5069136;28;20375;-55
2022/07/15 09:48:47;;;;;;;6.30;2.25;;;34.80;99.90;;;;;;5068147;28;20375;-56
2022/07/15 09:51:12;;;;;;;10.47;4.20;;;35.50;99.90;;;;;;5069008;28;20800;-56
2022/07/15 09:53:40;;;;;;;8.53;3.47;;;36.20;99.90;;;;;;5066992;28;20422;-61
2022/07/15 09:56:11;;;;;;;9.68;2.72;;;36.80;99.90;;;;;;5068978;28;20445;-54
2022/07/15 09:58:39;;;;;;;7.50;3.00;;;37.50;99.90;;;;;;5068698;28;20844;-61
2022/07/15 10:01:09;;;;;;;8.33;2.53;;;37.80;99.90;;;;;;5069282;28;20461;-53
2022/07/15 10:03:36;;;;;;;8.07;3.97;;;38.20;99.90;;;;;;5068657;28;20891;-59
2022/07/15 10:06:03;;;;;;;7.73;2.40;;;38.30;99.90;;;;;;5068907;28;20376;-55
2022/07/15 10:08:33;;;;;;;8.30;2.92;;;37.50;99.90;;;;;;5069139;28;20425;-55
2022/07/15 10:10:59;;;;;;;6.80;2.70;;;36.30;99.90;;;;;;5071678;28;20474;-53
2022/07/15 10:13:49;;;;;;;14.35;2.58;;;35.30;99.90;;;;;;5076331;28;20465;-59
2022/07/15 10:16:37;;;;;;;8.50;2.80;;;35.60;99.90;;;;;;5092908;28;20378;-55
2022/07/15 10:19:10;;;;;;;8.38;2.65;;;35.30;99.90;;;;;;5092751;28;20385;-53
2022/07/15 10:21:48;;;;;;;7.00;2.57;;;34.60;99.90;;;;;;5092354;28;20898;-58
2022/07/15 10:25:03;;;;;;;7.90;2.92;;;34.80;99.90;;;;;;5092781;28;20369;-53
2022/07/15 10:27:28;;;;;;;9.05;4.00;;;35.30;99.90;;;;;;5068683;28;20428;-53
2022/07/15 10:29:56;;;;;;;7.30;3.53;;;34.40;99.90;;;;;;5091391;28;20767;-53
2022/07/15 10:32:21;;;;;;;8.73;3.00;;;34.60;99.90;;;;;;5092349;28;20378;-55
2022/07/15 10:34:48;;;;;;;7.22;3.25;;;35.10;99.90;;;;;;5091531;28;20815;-56
2022/07/15 10:37:14;;;;;;;7.27;3.30;;;35.40;99.90;;;;;;5092462;28;20473;-53
2022/07/15 10:39:46;;;;;;;8.95;6.70;;;34.40;99.90;;;;;;5090387;28;20826;-53
2022/07/15 10:42:12;;;;;;;9.30;5.70;;;32.70;99.90;;;;;;5092304;28;20747;-55
2022/07/15 10:44:57;;;;;;;9.73;6.77;;;31.90;99.90;;;;;;5091777;28;20385;-61
2022/07/15 10:47:23;;;;;;;12.90;6.15;;;31.70;99.90;;;;;;5092493;28;20378;-55
2022/07/15 10:49:50;;;;;;;8.57;5.97;;;31.60;99.90;;;;;;5091596;28;20739;-55
2022/07/15 10:52:20;;;;;;;9.35;6.60;;;31.70;99.90;;;;;;5092400;28;20370;-55
2022/07/15 10:54:54;;;;;;;9.90;6.60;;;31.60;99.90;;;;;;5091267;28;20394;-52
2022/07/15 10:57:44;;;;;;;9.30;6.50;;;30.50;99.90;;;;;;5091807;28;20386;-53
2022/07/15 11:00:22;;;;;;;8.13;6.20;;;30.30;99.90;;;;;;5090851;28;20770;-55
2022/07/15 11:03:09;;;;;;;9.82;5.35;;;30.50;99.90;;;;;;5091292;28;20859;-58
2022/07/15 11:05:56;;;;;;;7.32;5.20;;;30.80;99.90;;;;;;5091782;28;20381;-55
2022/07/15 11:08:31;;;;;;;8.82;6.18;;;30.50;99.90;;;;;;5091912;28;20435;-55
2022/07/15 11:11:18;;;;;;;7.82;5.80;;;30.20;99.90;;;;;;5091088;28;20530;-52
2022/07/15 11:13:48;;;;;;;9.30;5.15;;;29.90;99.90;;;;;;5063016;28;20437;-53
2022/07/15 11:16:19;;;;;;;8.27;5.20;;;29.40;99.90;;;;;;5076173;28;20390;-52
2022/07/15 11:18:53;;;;;;;7.60;5.90;;;29.50;99.90;;;;;;5072339;28;20443;-53
2022/07/15 11:21:20;;;;;;;8.80;6.68;;;29.60;99.90;;;;;;5084970;28;20418;-52
2022/07/15 11:23:47;;;;;;;9.30;6.03;;;29.90;99.90;;;;;;5075138;28;20384;-52
2022/07/15 11:26:13;;;;;;;9.00;5.80;;;29.50;99.90;;;;;;5081548;28;20411;-53
2022/07/15 11:28:48;;;;;;;8.75;5.20;;;29.50;99.90;;;;;;5070653;28;20394;-63
2022/07/15 11:31:13;;;;;;;10.13;6.35;;;29.70;99.90;;;;;;5075856;28;20398;-55
2022/07/15 11:33:39;;;;;;;8.32;6.25;;;29.60;99.90;;;;;;5090670;28;20378;-63
2022/07/15 11:36:05;;;;;;;9.35;6.47;;;29.80;99.90;;;;;;5091479;28;20374;-59
2022/07/15 11:38:37;;;;;;;8.18;6.47;;;30.10;99.90;;;;;;5091242;28;20495;-55
2022/07/15 11:46:49;;;;;;;11.10;6.70;;;29.60;99.90;;;;;;5087968;28;20435;-52
2022/07/15 11:49:35;;;;;;;7.50;6.63;;;29.30;99.90;;;;;;5085819;28;20384;-55
2022/07/15 11:52:03;;;;;;;7.73;6.20;;;29.00;99.90;;;;;;5077213;28;20498;-54
2022/07/15 11:54:29;;;;;;;10.88;7.15;;;29.40;99.90;;;;;;5081663;28;20933;-53
2022/07/15 11:57:06;;;;;;;7.60;6.80;;;29.40;99.90;;;;;;5080839;28;20407;-53
2022/07/15 11:59:32;;;;;;;8.03;6.87;;;29.00;99.90;;;;;;5079363;28;20437;-53
2022/07/15 12:02:04;;;;;;;9.65;6.35;;;29.00;99.90;;;;;;5079002;28;20676;-53
2022/07/15 12:04:30;;;;;;;8.30;6.47;;;29.30;99.90;;;;;;5073150;28;20883;-58
2022/07/15 12:06:56;;;;;;;7.95;6.57;;;29.60;99.90;;;;;;5084521;28;20480;-54
2022/07/15 12:09:22;;;;;;;9.88;6.32;;;29.40;99.90;;;;;;5077467;28;20759;-54
2022/07/15 12:11:47;;;;;;;11.93;6.70;;;29.10;99.90;;;;;;5078595;28;20437;-53
2022/07/15 12:14:22;;;;;;;8.65;6.70;;;29.00;99.90;;;;;;5080040;28;20376;-53
2022/07/15 12:16:50;;;;;;;9.10;7.00;;;28.80;99.90;;;;;;5072972;28;20813;-53
2022/07/15 12:19:28;;;;;;;8.20;6.38;;;28.50;99.90;;;;;;5078999;28;20506;-53
2022/07/15 12:21:57;;;;;;;9.33;6.33;;;28.20;99.90;;;;;;5080786;28;20413;-53
2022/07/15 12:24:25;;;;;;;10.10;6.70;;;28.70;99.90;;;;;;5076448;28;21960;-53
2022/07/15 12:26:52;;;;;;;8.60;6.18;;;29.30;99.90;;;;;;5083750;28;20423;-53
2022/07/15 12:29:26;;;;;;;9.38;7.38;;;29.40;99.90;;;;;;5083347;28;20932;-55
2022/07/15 12:31:54;;;;;;;10.35;6.65;;;29.60;99.90;;;;;;5080996;28;20408;-53
2022/07/15 12:34:20;;;;;;;9.65;6.38;;;30.10;99.90;;;;;;5082427;28;20398;-53
2022/07/15 12:36:55;;;;;;;8.48;5.65;;;29.80;99.90;;;;;;5074594;28;20400;-53
2022/07/15 12:39:21;;;;;;;9.20;5.70;;;29.40;99.90;;;;;;5073866;28;20391;-53
2022/07/15 12:42:02;;;;;;;8.02;6.05;;;29.20;99.90;;;;;;5069129;28;20730;-53
2022/07/15 12:44:28;;;;;;;8.02;6.20;;;29.60;99.90;;;;;;5072339;28;20406;-53
2022/07/15 12:46:56;;;;;;;8.98;6.00;;;29.60;99.90;;;;;;5076422;28;20473;-53
2022/07/15 12:49:41;;;;;;;10.38;6.00;;;29.70;99.90;;;;;;5077741;28;20489;-54
2022/07/15 12:52:23;;;;;;;7.75;6.15;;;29.40;99.90;;;;;;5089296;28;20465;-54
2022/07/15 12:54:51;;;;;;;8.70;5.57;;;29.10;99.90;;;;;;5069733;28;20398;-54
2022/07/15 12:57:24;;;;;;;8.77;6.07;;;28.80;99.90;;;;;;5089988;28;20397;-61
2022/07/15 13:00:05;;;;;;;7.90;6.77;;;28.50;99.90;;;;;;5080339;28;20924;-59
2022/07/15 13:02:32;;;;;;;8.90;6.10;;;28.30;99.90;;;;;;5084571;28;20385;-56
2022/07/15 13:04:58;;;;;;;7.93;6.23;;;28.10;99.90;;;;;;5083869;28;20382;-53
2022/07/15 13:07:24;;;;;;;7.18;5.57;;;28.00;99.90;;;;;;5082936;28;20485;-53